createdAt,value
2018-08-24T00:00:52.838Z,90.03
2018-08-24T00:01:58.976Z,90.64
2018-08-24T00:03:04.404Z,90.82
2018-08-24T00:04:10.369Z,91.43
2018-08-24T00:05:16.674Z,91.77
2018-08-24T00:06:23.013Z,92.38
2018-08-24T00:07:29.386Z,92.62
2018-08-24T00:08:35.992Z,92.24
2018-08-24T00:09:42.233Z,92.25
2018-08-24T00:10:48.351Z,91.02
2018-08-24T00:11:55.207Z,91.00
2018-08-24T00:13:01.576Z,91.71
2018-08-24T00:14:07.691Z,94.07
2018-08-24T00:15:13.788Z,95.07
2018-08-24T00:16:19.727Z,95.04
2018-08-24T00:17:25.463Z,95.15
2018-08-24T00:18:36.512Z,95.01
2018-08-24T00:19:42.758Z,94.06
2018-08-24T00:20:49.068Z,94.31
2018-08-24T00:21:55.420Z,95.37
2018-08-24T00:23:01.653Z,95.93
2018-08-24T00:24:06.980Z,95.75
2018-08-24T00:25:13.369Z,95.21
2018-08-24T00:26:19.604Z,93.49
2018-08-24T00:27:25.991Z,91.99
2018-08-24T00:28:32.259Z,92.54
2018-08-24T00:29:38.504Z,92.73
2018-08-24T00:30:44.759Z,93.59
2018-08-24T00:31:51.138Z,95.08
2018-08-24T00:32:58.156Z,96.12
2018-08-24T00:34:04.026Z,96.00
2018-08-24T00:35:10.383Z,94.30
2018-08-24T00:36:16.720Z,95.72
2018-08-24T00:37:22.677Z,96.23
2018-08-24T00:38:29.039Z,94.51
2018-08-24T00:39:35.329Z,92.93
2018-08-24T00:40:41.636Z,91.89
2018-08-24T00:41:47.976Z,91.90
2018-08-24T00:42:54.262Z,92.17
2018-08-24T00:44:01.308Z,91.92
2018-08-24T00:45:07.063Z,92.18
2018-08-24T00:46:13.327Z,91.58
2018-08-24T00:47:19.611Z,92.20
2018-08-24T00:48:25.570Z,93.94
2018-08-24T00:49:31.974Z,94.05
2018-08-24T00:50:38.265Z,93.11
2018-08-24T00:51:44.377Z,93.36
2018-08-24T00:52:50.461Z,93.56
2018-08-24T00:53:56.453Z,94.20
2018-08-24T00:55:02.803Z,95.43
2018-08-24T00:56:08.752Z,98.10
2018-08-24T00:57:14.804Z,98.87
2018-08-24T00:58:25.324Z,99.61
2018-08-24T00:59:30.976Z,99.55
2018-08-24T01:00:36.968Z,98.76
2018-08-24T01:01:47.232Z,98.46
2018-08-24T01:02:53.985Z,98.58
2018-08-24T01:04:00.385Z,97.71
2018-08-24T01:05:05.680Z,97.23
2018-08-24T01:06:11.844Z,96.21
2018-08-24T01:07:17.854Z,94.91
2018-08-24T01:08:24.192Z,93.04
2018-08-24T01:09:30.260Z,92.11
2018-08-24T01:10:36.119Z,92.45
2018-08-24T01:11:42.147Z,93.24
2018-08-24T01:12:48.583Z,93.79
2018-08-24T01:13:54.692Z,93.68
2018-08-24T01:15:01.029Z,92.81
2018-08-24T01:16:07.429Z,92.88
2018-08-24T01:17:12.800Z,92.68
2018-08-24T01:18:18.621Z,92.44
2018-08-24T01:19:24.922Z,92.21
2018-08-24T01:20:30.970Z,91.30
2018-08-24T01:21:37.225Z,90.81
2018-08-24T01:22:43.557Z,91.45
2018-08-24T01:23:49.471Z,91.78
2018-08-24T01:24:55.917Z,92.54
2018-08-24T01:26:02.613Z,93.72
2018-08-24T01:27:08.927Z,94.73
2018-08-24T01:28:15.232Z,95.11
2018-08-24T01:29:21.325Z,94.41
2018-08-24T01:30:27.664Z,92.53
2018-08-24T01:31:33.960Z,90.55
2018-08-24T01:32:40.293Z,89.10
2018-08-24T01:33:46.483Z,88.46
2018-08-24T01:34:52.802Z,88.36
2018-08-24T01:35:58.891Z,89.40
2018-08-24T01:37:04.500Z,90.04
2018-08-24T01:38:10.933Z,90.30
2018-08-24T01:39:16.985Z,90.62
2018-08-24T01:40:23.384Z,90.97
2018-08-24T01:41:29.649Z,91.52
2018-08-24T01:42:35.944Z,91.47
2018-08-24T01:43:42.276Z,91.63
2018-08-24T01:44:48.231Z,90.99
2018-08-24T01:45:54.331Z,88.88
2018-08-24T01:47:00.253Z,88.42
2018-08-24T01:48:06.008Z,88.35
2018-08-24T01:49:11.979Z,88.39
2018-08-24T01:50:18.307Z,88.01
2018-08-24T01:51:24.400Z,87.09
2018-08-24T01:52:30.716Z,86.79
2018-08-24T01:53:36.359Z,85.96
2018-08-24T01:54:42.406Z,85.94
2018-08-24T01:55:48.755Z,86.26
2018-08-24T01:56:55.032Z,86.21
2018-08-24T01:58:01.052Z,86.22
2018-08-24T01:59:07.444Z,86.08
2018-08-24T02:00:14.112Z,85.36
2018-08-24T02:01:20.733Z,84.94
2018-08-24T02:02:27.112Z,85.08
2018-08-24T02:03:33.435Z,85.19
2018-08-24T02:04:39.713Z,85.19
2018-08-24T02:05:46.060Z,85.41
2018-08-24T02:06:52.049Z,85.11
2018-08-24T02:07:58.089Z,84.58
2018-08-24T02:09:03.399Z,84.39
2018-08-24T02:10:09.184Z,84.30
2018-08-24T02:11:15.261Z,84.02
2018-08-24T02:12:21.392Z,84.00
2018-08-24T02:15:01.847Z,81.82
2018-08-24T02:16:08.972Z,81.41
2018-08-24T02:17:15.053Z,82.27
2018-08-24T02:19:52.704Z,82.16
2018-08-24T02:21:13.167Z,82.93
2018-08-24T02:22:19.328Z,84.17
2018-08-24T02:23:25.720Z,84.49
2018-08-24T02:24:32.114Z,84.68
2018-08-24T02:25:38.467Z,84.32
2018-08-24T02:26:44.755Z,84.04
2018-08-24T02:27:51.765Z,84.10
2018-08-24T02:28:58.091Z,84.26
2018-08-24T02:30:03.691Z,83.60
2018-08-24T02:31:09.709Z,83.72
2018-08-24T02:32:15.985Z,83.41
2018-08-24T02:33:22.581Z,84.04
2018-08-24T02:34:28.632Z,84.18
2018-08-24T02:35:35.072Z,84.41
2018-08-24T02:36:41.375Z,83.50
2018-08-24T02:37:47.451Z,83.34
2018-08-24T02:38:53.548Z,82.74
2018-08-24T02:39:59.583Z,82.81
2018-08-24T02:41:05.967Z,82.80
2018-08-24T02:42:12.393Z,82.87
2018-08-24T02:43:18.740Z,82.45
2018-08-24T02:44:25.258Z,81.71
2018-08-24T02:45:30.520Z,80.93
2018-08-24T02:46:36.859Z,80.90
2018-08-24T02:47:43.263Z,80.82
2018-08-24T02:49:04.539Z,81.31
2018-08-24T02:50:11.566Z,80.71
2018-08-24T02:51:18.042Z,80.07
2018-08-24T02:52:24.853Z,80.57
2018-08-24T02:53:31.190Z,81.44
2018-08-24T02:54:37.191Z,81.33
2018-08-24T02:55:43.313Z,81.82
2018-08-24T02:56:49.327Z,82.54
2018-08-24T02:57:55.743Z,82.23
2018-08-24T02:59:02.013Z,81.94
2018-08-24T03:00:08.415Z,81.85
2018-08-24T03:01:14.975Z,81.43
2018-08-24T03:02:21.473Z,81.80
2018-08-24T03:03:27.477Z,81.78
2018-08-24T03:04:34.088Z,81.83
2018-08-24T03:05:40.007Z,81.91
2018-08-24T03:06:46.213Z,81.87
2018-08-24T03:07:52.220Z,81.19
2018-08-24T03:08:58.260Z,80.93
2018-08-24T03:10:04.535Z,80.93
2018-08-24T03:11:10.818Z,81.52
2018-08-24T03:12:17.211Z,81.65
2018-08-24T03:13:24.114Z,81.35
2018-08-24T03:14:30.482Z,81.29
2018-08-24T03:15:36.834Z,81.24
2018-08-24T03:16:42.724Z,80.47
2018-08-24T03:17:48.803Z,80.18
2018-08-24T03:18:55.437Z,79.70
2018-08-24T03:20:01.845Z,79.58
2018-08-24T03:21:08.175Z,78.75
2018-08-24T03:22:14.465Z,78.28
2018-08-24T03:23:20.789Z,77.66
2018-08-24T03:24:27.100Z,77.88
2018-08-24T03:25:33.435Z,78.04
2018-08-24T03:26:39.400Z,78.07
2018-08-24T03:27:45.841Z,78.23
2018-08-24T03:28:51.957Z,77.89
2018-08-24T03:29:58.245Z,77.76
2018-08-24T03:31:04.371Z,78.46
2018-08-24T03:32:10.683Z,77.09
2018-08-24T03:33:16.973Z,76.78
2018-08-24T03:34:23.429Z,77.84
2018-08-24T03:35:30.056Z,78.90
2018-08-24T03:36:36.326Z,78.83
2018-08-24T03:37:42.319Z,78.44
2018-08-24T03:38:48.669Z,77.99
2018-08-24T03:39:55.148Z,78.28
2018-08-24T03:41:01.197Z,77.47
2018-08-24T03:42:06.584Z,77.55
2018-08-24T03:43:12.572Z,77.33
2018-08-24T03:44:18.617Z,77.48
2018-08-24T03:45:24.532Z,76.86
2018-08-24T03:46:31.004Z,76.59
2018-08-24T03:47:37.323Z,76.73
2018-08-24T03:48:43.641Z,76.95
2018-08-24T03:49:49.921Z,76.97
2018-08-24T03:50:56.022Z,77.18
2018-08-24T03:52:02.136Z,77.35
2018-08-24T03:53:08.462Z,77.66
2018-08-24T03:54:14.960Z,77.27
2018-08-24T03:55:20.952Z,76.87
2018-08-24T03:56:27.318Z,77.22
2018-08-24T03:57:35.574Z,76.63
2018-08-24T03:58:52.926Z,77.03
2018-08-24T04:00:02.878Z,76.43
2018-08-24T04:01:09.027Z,75.75
2018-08-24T04:02:15.353Z,76.20
2018-08-24T04:03:21.942Z,76.52
2018-08-24T04:04:27.983Z,75.99
2018-08-24T04:05:34.018Z,75.23
2018-08-24T04:06:40.072Z,75.06
2018-08-24T04:07:46.003Z,76.11
2018-08-24T04:08:52.535Z,76.25
2018-08-24T04:09:58.797Z,76.64
2018-08-24T04:11:04.785Z,76.05
2018-08-24T04:12:11.407Z,75.81
2018-08-24T04:13:17.825Z,76.48
2018-08-24T04:14:24.045Z,76.79
2018-08-24T04:15:30.228Z,77.96
2018-08-24T04:16:36.049Z,78.09
2018-08-24T04:17:42.256Z,77.78
2018-08-24T04:18:48.581Z,77.92
2018-08-24T04:19:54.614Z,78.00
2018-08-24T04:21:00.720Z,78.74
2018-08-24T04:22:06.720Z,78.08
2018-08-24T04:23:13.007Z,78.92
2018-08-24T04:24:19.318Z,79.44
2018-08-24T04:25:25.640Z,78.21
2018-08-24T04:26:32.686Z,76.97
2018-08-24T04:27:38.842Z,76.62
2018-08-24T04:28:45.287Z,77.02
2018-08-24T04:29:51.911Z,77.03
2018-08-24T04:30:58.332Z,77.48
2018-08-24T04:32:04.105Z,79.91
2018-08-24T04:33:10.195Z,81.60
2018-08-24T04:34:15.516Z,81.22
2018-08-24T04:35:22.229Z,81.65
2018-08-24T04:36:28.567Z,82.54
2018-08-24T04:37:34.847Z,83.24
2018-08-24T04:38:41.340Z,82.82
2018-08-24T04:39:48.579Z,82.01
2018-08-24T04:40:55.686Z,81.86
2018-08-24T04:42:05.881Z,81.98
2018-08-24T04:43:13.623Z,80.52
2018-08-24T04:44:21.013Z,80.52
2018-08-24T04:45:27.877Z,81.63
2018-08-24T04:46:34.360Z,82.10
2018-08-24T04:47:40.479Z,81.59
2018-08-24T04:48:46.791Z,82.09
2018-08-24T04:49:53.076Z,83.53
2018-08-24T04:50:59.179Z,84.60
2018-08-24T04:52:05.531Z,84.19
2018-08-24T04:53:11.853Z,83.24
2018-08-24T04:54:18.130Z,82.81
2018-08-24T04:55:24.530Z,83.42
2018-08-24T04:56:30.892Z,83.12
2018-08-24T04:57:37.413Z,81.18
2018-08-24T04:58:43.672Z,80.94
2018-08-24T04:59:49.726Z,81.22
2018-08-24T05:01:06.480Z,82.03
2018-08-24T05:02:27.765Z,83.45
2018-08-24T05:03:48.501Z,84.01
2018-08-24T05:04:57.563Z,84.74
2018-08-24T05:06:03.778Z,84.16
2018-08-24T05:07:10.067Z,82.65
2018-08-24T05:08:16.376Z,82.07
2018-08-24T05:09:22.667Z,82.58
2018-08-24T05:10:29.509Z,82.35
2018-08-24T05:11:37.237Z,82.14
2018-08-24T05:12:43.503Z,82.49
2018-08-24T05:13:49.748Z,82.59
2018-08-24T05:14:56.522Z,81.84
2018-08-24T05:16:02.709Z,81.61
2018-08-24T05:17:09.397Z,82.07
2018-08-24T05:18:15.720Z,82.81
2018-08-24T05:19:29.629Z,82.36
2018-08-24T05:20:44.272Z,81.85
2018-08-24T05:22:02.433Z,81.85
2018-08-24T05:23:20.210Z,80.58
2018-08-24T05:24:29.999Z,80.58
2018-08-24T05:25:37.599Z,80.04
2018-08-24T05:26:44.640Z,79.54
2018-08-24T05:27:51.509Z,79.75
2018-08-24T05:28:57.529Z,80.22
2018-08-24T05:30:03.873Z,80.22
2018-08-24T05:31:10.151Z,81.98
2018-08-24T05:32:16.496Z,81.17
2018-08-24T05:33:22.432Z,82.52
2018-08-24T05:34:28.792Z,84.38
2018-08-24T05:35:35.375Z,83.98
2018-08-24T05:36:42.070Z,83.99
2018-08-24T05:37:48.481Z,83.01
2018-08-24T05:38:54.779Z,81.76
2018-08-24T05:40:01.063Z,81.11
2018-08-24T05:41:07.657Z,81.38
2018-08-24T05:42:14.035Z,81.70
2018-08-24T05:43:20.308Z,82.22
2018-08-24T05:44:26.624Z,83.55
2018-08-24T05:45:32.937Z,82.97
2018-08-24T05:46:39.388Z,82.36
2018-08-24T05:47:46.095Z,82.50
2018-08-24T05:48:52.464Z,83.27
2018-08-24T05:49:58.665Z,83.86
2018-08-24T05:51:04.713Z,84.00
2018-08-24T05:52:11.000Z,84.08
2018-08-24T05:53:17.008Z,84.13
2018-08-24T05:54:23.447Z,82.94
2018-08-24T05:55:30.579Z,83.24
2018-08-24T05:56:38.041Z,83.33
2018-08-24T05:57:44.428Z,83.63
2018-08-24T05:58:50.580Z,83.26
2018-08-24T05:59:56.822Z,83.02
2018-08-24T06:01:02.954Z,82.67
2018-08-24T06:02:09.616Z,83.50
2018-08-24T06:03:16.282Z,83.41
2018-08-24T06:04:22.683Z,82.26
2018-08-24T06:05:28.685Z,80.85
2018-08-24T06:06:34.698Z,79.68
2018-08-24T06:07:40.960Z,79.29
2018-08-24T06:08:47.144Z,79.42
2018-08-24T06:09:53.537Z,80.64
2018-08-24T06:10:59.296Z,81.68
2018-08-24T06:12:05.099Z,81.80
2018-08-24T06:13:10.937Z,81.30
2018-08-24T06:14:16.942Z,80.56
2018-08-24T06:15:22.513Z,80.25
2018-08-24T06:16:28.428Z,79.69
2018-08-24T06:17:34.793Z,79.02
2018-08-24T06:18:41.179Z,78.39
2018-08-24T06:19:47.753Z,77.32
2018-08-24T06:20:54.085Z,76.89
2018-08-24T06:22:00.454Z,77.59
2018-08-24T06:23:06.749Z,77.68
2018-08-24T06:24:13.063Z,77.98
2018-08-24T06:25:19.049Z,77.00
2018-08-24T06:26:25.456Z,76.64
2018-08-24T06:27:31.878Z,75.60
2018-08-24T06:28:38.230Z,75.86
2018-08-24T06:29:45.309Z,75.90
2018-08-24T06:30:51.906Z,76.41
2018-08-24T06:31:58.135Z,76.97
2018-08-24T06:33:04.096Z,76.38
2018-08-24T06:34:10.179Z,76.23
2018-08-24T06:35:16.473Z,75.73
2018-08-24T06:36:22.908Z,74.27
2018-08-24T06:37:28.914Z,73.29
2018-08-24T06:38:35.226Z,73.01
2018-08-24T06:39:41.535Z,73.40
2018-08-24T06:40:48.843Z,72.80
2018-08-24T06:41:54.901Z,72.99
2018-08-24T06:43:01.376Z,71.86
2018-08-24T06:44:07.703Z,71.95
2018-08-24T06:45:14.044Z,71.88
2018-08-24T06:46:20.242Z,71.42
2018-08-24T06:47:26.641Z,71.68
2018-08-24T06:48:33.065Z,71.61
2018-08-24T06:49:39.578Z,71.56
2018-08-24T06:50:45.894Z,71.44
2018-08-24T06:51:52.212Z,72.35
2018-08-24T06:52:58.213Z,72.53
2018-08-24T06:54:05.039Z,71.51
2018-08-24T06:55:11.315Z,71.60
2018-08-24T06:56:17.664Z,72.30
2018-08-24T06:57:23.942Z,71.17
2018-08-24T06:58:30.285Z,72.17
2018-08-24T06:59:38.154Z,71.80
2018-08-24T07:00:44.743Z,72.85
2018-08-24T07:01:51.016Z,72.77
2018-08-24T07:02:58.061Z,72.04
2018-08-24T07:04:04.011Z,71.43
2018-08-24T07:05:10.373Z,71.48
2018-08-24T07:06:16.709Z,71.35
2018-08-24T07:07:22.997Z,71.78
2018-08-24T07:08:29.208Z,72.77
2018-08-24T07:09:35.149Z,72.34
2018-08-24T07:10:41.569Z,71.71
2018-08-24T07:11:47.575Z,72.14
2018-08-24T07:12:53.679Z,70.84
2018-08-24T07:14:00.201Z,69.72
2018-08-24T07:15:05.613Z,69.03
2018-08-24T07:16:11.654Z,68.91
2018-08-24T07:17:17.737Z,69.44
2018-08-24T07:18:24.090Z,69.36
2018-08-24T07:19:30.592Z,67.23
2018-08-24T07:20:36.944Z,67.60
2018-08-24T07:21:43.196Z,68.30
2018-08-24T07:22:49.650Z,68.72
2018-08-24T07:23:58.260Z,69.79
2018-08-24T07:25:04.151Z,69.40
2018-08-24T07:26:10.622Z,67.83
2018-08-24T07:27:16.854Z,67.97
2018-08-24T07:28:23.181Z,68.12
2018-08-24T07:29:29.445Z,68.79
2018-08-24T07:30:35.766Z,67.88
2018-08-24T07:31:42.083Z,66.95
2018-08-24T07:32:48.390Z,67.11
2018-08-24T07:33:55.412Z,68.38
2018-08-24T07:35:01.411Z,68.18
2018-08-24T07:36:07.757Z,68.10
2018-08-24T07:37:14.486Z,67.58
2018-08-24T07:38:20.780Z,68.39
2018-08-24T07:39:27.112Z,68.74
2018-08-24T07:40:33.433Z,67.18
2018-08-24T07:41:39.760Z,67.03
2018-08-24T07:42:45.900Z,67.36
2018-08-24T07:43:52.155Z,67.84
2018-08-24T07:44:58.210Z,67.24
2018-08-24T07:46:04.530Z,65.95
2018-08-24T07:47:10.980Z,67.17
2018-08-24T07:48:17.262Z,68.14
2018-08-24T07:49:23.598Z,65.62
2018-08-24T07:50:30.104Z,65.13
2018-08-24T07:51:36.412Z,65.16
2018-08-24T07:52:42.696Z,64.62
2018-08-24T07:53:48.917Z,65.10
2018-08-24T07:54:54.886Z,65.14
2018-08-24T07:56:01.007Z,63.41
2018-08-24T07:57:08.176Z,62.87
2018-08-24T07:58:14.342Z,62.33
2018-08-24T07:59:20.583Z,62.10
2018-08-24T08:00:26.884Z,63.28
2018-08-24T08:01:32.905Z,63.79
2018-08-24T08:02:38.648Z,64.47
2018-08-24T08:03:45.073Z,63.60
2018-08-24T08:04:51.091Z,64.54
2018-08-24T08:05:57.121Z,63.65
2018-08-24T08:07:03.490Z,63.41
2018-08-24T08:08:09.581Z,63.29
2018-08-24T08:09:15.626Z,62.60
2018-08-24T08:10:21.977Z,62.89
2018-08-24T08:11:27.862Z,63.30
2018-08-24T08:12:34.260Z,62.72
2018-08-24T08:13:40.423Z,62.40
2018-08-24T08:14:46.453Z,62.60
2018-08-24T08:15:52.741Z,62.77
2018-08-24T08:16:59.490Z,63.11
2018-08-24T08:18:05.790Z,62.62
2018-08-24T08:19:12.271Z,61.61
2018-08-24T08:20:18.386Z,62.00
2018-08-24T08:21:24.701Z,62.15
2018-08-24T08:22:31.007Z,62.09
2018-08-24T08:23:37.298Z,62.85
2018-08-24T08:24:54.280Z,61.77
2018-08-24T08:26:04.096Z,60.72
2018-08-24T08:27:10.375Z,60.74
2018-08-24T08:28:16.667Z,59.95
2018-08-24T08:29:22.762Z,60.35
2018-08-24T08:30:29.076Z,59.48
2018-08-24T08:31:35.216Z,59.77
2018-08-24T08:32:50.298Z,59.78
2018-08-24T08:34:00.345Z,59.69
2018-08-24T08:35:06.495Z,60.41
2018-08-24T08:36:12.516Z,59.87
2018-08-24T08:37:18.750Z,59.50
2018-08-24T08:38:33.794Z,59.59
2018-08-24T08:39:50.938Z,59.70
2018-08-24T08:40:57.117Z,58.96
2018-08-24T08:42:03.440Z,58.48
2018-08-24T08:43:09.521Z,58.60
2018-08-24T08:44:16.120Z,58.40
2018-08-24T08:45:23.123Z,58.79
2018-08-24T08:46:29.511Z,58.82
2018-08-24T08:47:36.523Z,58.70
2018-08-24T08:48:43.079Z,58.99
2018-08-24T08:49:49.342Z,58.96
2018-08-24T08:50:55.663Z,60.03
2018-08-24T08:52:01.673Z,60.33
2018-08-24T08:53:08.172Z,60.21
2018-08-24T08:54:14.474Z,59.41
2018-08-24T08:55:20.788Z,59.42
2018-08-24T08:56:26.561Z,59.44
2018-08-24T08:57:32.590Z,59.26
2018-08-24T08:58:38.810Z,59.64
2018-08-24T08:59:45.817Z,59.33
2018-08-24T09:00:52.166Z,59.29
2018-08-24T09:01:58.350Z,59.69
2018-08-24T09:03:04.615Z,59.45
2018-08-24T09:04:11.553Z,59.40
2018-08-24T09:05:17.744Z,58.86
2018-08-24T09:06:24.696Z,59.36
2018-08-24T09:07:31.280Z,58.30
2018-08-24T09:08:37.579Z,58.62
2018-08-24T09:09:43.906Z,57.97
2018-08-24T09:10:50.691Z,58.22
2018-08-24T09:11:56.943Z,57.76
2018-08-24T09:13:03.335Z,57.58
2018-08-24T09:14:09.954Z,57.98
2018-08-24T09:15:16.259Z,58.02
2018-08-24T09:16:22.536Z,57.89
2018-08-24T09:17:28.273Z,58.32
2018-08-24T09:18:39.807Z,57.92
2018-08-24T09:21:40.452Z,58.34
2018-08-24T09:23:05.020Z,58.16
2018-08-24T09:26:01.638Z,58.79
2018-08-24T09:27:22.321Z,59.86
2018-08-24T09:28:28.467Z,59.09
2018-08-24T09:29:34.630Z,59.00
2018-08-24T09:30:40.894Z,59.09
2018-08-24T09:31:46.925Z,59.84
2018-08-24T09:32:53.311Z,60.26
2018-08-24T09:33:59.966Z,60.78
2018-08-24T09:35:05.780Z,61.45
2018-08-24T09:36:11.962Z,61.38
2018-08-24T09:37:18.292Z,61.96
2018-08-24T09:38:24.586Z,65.41
2018-08-24T09:39:30.836Z,67.02
2018-08-24T09:40:36.937Z,68.43
2018-08-24T09:41:43.248Z,70.21
2018-08-24T09:42:49.703Z,71.59
2018-08-24T09:43:56.137Z,70.42
2018-08-24T09:45:02.488Z,70.73
2018-08-24T09:46:08.624Z,69.69
2018-08-24T09:47:14.361Z,69.83
2018-08-24T09:48:28.121Z,72.56
2018-08-24T09:49:34.112Z,73.75
2018-08-24T09:50:40.157Z,73.88
2018-08-24T09:51:46.587Z,73.98
2018-08-24T09:52:52.524Z,73.95
2018-08-24T09:54:00.516Z,73.23
2018-08-24T09:55:06.131Z,71.95
2018-08-24T09:56:12.489Z,72.26
2018-08-24T09:57:18.621Z,73.56
2018-08-24T09:58:24.915Z,72.90
2018-08-24T09:59:31.329Z,72.50
2018-08-24T10:00:37.773Z,72.08
2018-08-24T10:01:49.505Z,71.47
2018-08-24T10:02:55.664Z,72.35
2018-08-24T10:05:48.679Z,74.11
2018-08-24T10:07:24.537Z,74.33
2018-08-24T10:08:30.721Z,74.72
2018-08-24T10:09:37.006Z,74.73
2018-08-24T10:10:43.328Z,73.99
2018-08-24T10:11:49.629Z,73.70
2018-08-24T10:12:55.975Z,74.38
2018-08-24T10:14:02.401Z,73.68
2018-08-24T10:15:08.319Z,73.38
2018-08-24T10:16:14.260Z,72.70
2018-08-24T10:17:20.366Z,72.49
2018-08-24T10:18:26.604Z,72.60
2018-08-24T10:19:32.932Z,71.65
2018-08-24T10:20:39.197Z,71.66
2018-08-24T10:21:45.554Z,71.07
2018-08-24T10:22:52.326Z,70.92
2018-08-24T10:23:58.368Z,69.61
2018-08-24T10:25:03.964Z,69.22
2018-08-24T10:26:09.945Z,69.50
2018-08-24T10:27:16.252Z,69.36
2018-08-24T10:28:22.591Z,69.95
2018-08-24T10:29:29.029Z,69.76
2018-08-24T10:30:35.535Z,69.04
2018-08-24T10:31:41.823Z,68.42
2018-08-24T10:32:48.040Z,68.40
2018-08-24T10:33:54.466Z,69.56
2018-08-24T10:35:00.868Z,69.87
2018-08-24T10:36:07.163Z,69.30
2018-08-24T10:37:13.547Z,67.57
2018-08-24T10:38:20.495Z,67.96
2018-08-24T10:39:26.776Z,66.29
2018-08-24T10:40:33.030Z,64.87
2018-08-24T10:41:39.407Z,65.90
2018-08-24T10:42:45.653Z,67.15
2018-08-24T10:43:52.004Z,67.94
2018-08-24T10:44:58.296Z,67.58
2018-08-24T10:46:04.583Z,65.79
2018-08-24T10:47:11.594Z,65.70
2018-08-24T10:48:18.739Z,66.32
2018-08-24T10:49:25.787Z,65.73
2018-08-24T10:50:32.700Z,65.35
2018-08-24T10:51:38.875Z,63.45
2018-08-24T10:52:45.128Z,62.82
2018-08-24T10:53:51.110Z,62.86
2018-08-24T10:54:57.452Z,62.43
2018-08-24T10:56:03.807Z,62.04
2018-08-24T10:57:10.269Z,61.10
2018-08-24T10:58:16.595Z,62.28
2018-08-24T10:59:22.924Z,62.12
2018-08-24T11:00:29.200Z,61.36
2018-08-24T11:01:35.576Z,60.34
2018-08-24T11:02:41.932Z,60.31
2018-08-24T11:03:48.287Z,61.19
2018-08-24T11:04:55.022Z,59.00
2018-08-24T11:06:00.984Z,59.95
2018-08-24T11:07:07.294Z,59.27
2018-08-24T11:08:13.608Z,57.84
2018-08-24T11:09:19.603Z,57.74
2018-08-24T11:10:26.559Z,57.44
2018-08-24T11:11:32.879Z,57.75
2018-08-24T11:12:39.390Z,56.58
2018-08-24T11:13:45.468Z,56.11
2018-08-24T11:14:51.830Z,55.57
2018-08-24T11:15:58.095Z,56.63
2018-08-24T11:17:03.724Z,56.30
2018-08-24T11:18:10.024Z,57.07
2018-08-24T11:19:16.340Z,57.29
2018-08-24T11:20:23.436Z,57.52
2018-08-24T11:21:30.164Z,57.51
2018-08-24T11:22:36.476Z,57.05
2018-08-24T11:23:42.773Z,57.27
2018-08-24T11:24:49.832Z,56.32
2018-08-24T11:25:56.127Z,55.65
2018-08-24T11:27:01.788Z,53.54
2018-08-24T11:28:08.008Z,53.52
2018-08-24T11:29:14.425Z,53.40
2018-08-24T11:30:20.968Z,52.96
2018-08-24T11:31:27.304Z,52.65
2018-08-24T11:32:33.600Z,53.51
2018-08-24T11:33:39.909Z,53.44
2018-08-24T11:34:45.999Z,53.41
2018-08-24T11:35:52.438Z,52.67
2018-08-24T11:36:58.919Z,52.34
2018-08-24T11:38:05.266Z,51.17
2018-08-24T11:39:11.592Z,50.91
2018-08-24T11:40:18.175Z,50.47
2018-08-24T11:41:35.787Z,51.29
2018-08-24T11:42:42.069Z,51.23
2018-08-24T11:43:48.981Z,51.47
2018-08-24T11:44:55.017Z,51.50
2018-08-24T11:46:01.331Z,51.74
2018-08-24T11:47:07.623Z,52.07
2018-08-24T11:48:14.166Z,51.77
2018-08-24T11:49:21.808Z,51.42
2018-08-24T11:50:27.909Z,52.25
2018-08-24T11:51:33.888Z,51.93
2018-08-24T11:52:40.231Z,52.76
2018-08-24T11:53:46.531Z,52.41
2018-08-24T11:54:52.535Z,51.97
2018-08-24T11:55:58.837Z,51.83
2018-08-24T11:57:04.791Z,52.30
2018-08-24T11:58:11.040Z,51.70
2018-08-24T11:59:17.342Z,51.00
2018-08-24T12:00:24.124Z,51.67
2018-08-24T12:01:30.449Z,51.34
2018-08-24T12:02:36.705Z,50.95
2018-08-24T12:03:43.051Z,51.38
2018-08-24T12:04:49.364Z,51.83
2018-08-24T12:05:55.636Z,52.15
2018-08-24T12:07:01.843Z,51.10
2018-08-24T12:08:08.245Z,48.58
2018-08-24T12:09:15.236Z,47.57
2018-08-24T12:10:21.752Z,47.31
2018-08-24T12:11:28.617Z,46.11
2018-08-24T12:12:34.910Z,46.07
2018-08-24T12:13:41.392Z,45.81
2018-08-24T12:14:47.396Z,44.88
2018-08-24T12:15:53.672Z,45.28
2018-08-24T12:16:59.773Z,44.96
2018-08-24T12:18:06.019Z,45.05
2018-08-24T12:19:12.126Z,45.03
2018-08-24T12:20:18.447Z,44.58
2018-08-24T12:21:24.867Z,45.57
2018-08-24T12:22:31.364Z,46.63
2018-08-24T12:23:37.440Z,47.03
2018-08-24T12:24:43.796Z,48.26
2018-08-24T12:25:50.089Z,48.91
2018-08-24T12:26:56.281Z,50.21
2018-08-24T12:28:02.913Z,52.28
2018-08-24T12:29:09.197Z,53.71
2018-08-24T12:30:15.357Z,55.23
2018-08-24T12:31:21.636Z,56.59
2018-08-24T12:32:27.719Z,57.80
2018-08-24T12:33:33.751Z,60.18
2018-08-24T12:34:40.108Z,61.88
2018-08-24T12:35:46.722Z,63.29
2018-08-24T12:36:53.011Z,63.37
2018-08-24T12:37:59.336Z,64.55
2018-08-24T12:39:05.677Z,64.67
2018-08-24T12:40:15.550Z,64.74
2018-08-24T12:41:21.741Z,63.81
2018-08-24T12:42:28.374Z,65.14
2018-08-24T12:43:34.509Z,64.50
2018-08-24T12:44:40.604Z,64.93
2018-08-24T12:45:46.896Z,65.44
2018-08-24T12:46:53.851Z,65.69
2018-08-24T12:48:00.404Z,67.07
2018-08-24T12:49:06.739Z,67.61
2018-08-24T12:50:13.137Z,67.39
2018-08-24T12:51:19.330Z,68.60
2018-08-24T12:52:25.588Z,69.38
2018-08-24T12:53:31.887Z,69.56
2018-08-24T12:54:38.176Z,69.15
2018-08-24T12:55:44.216Z,70.35
2018-08-24T12:56:50.691Z,71.50
2018-08-24T12:57:56.804Z,71.43
2018-08-24T12:59:02.996Z,70.66
2018-08-24T13:00:09.380Z,71.64
2018-08-24T13:01:15.370Z,73.46
2018-08-24T13:02:21.764Z,72.49
2018-08-24T13:03:28.165Z,70.71
2018-08-24T13:04:34.481Z,70.79
2018-08-24T13:05:40.717Z,70.31
2018-08-24T13:06:47.492Z,69.30
2018-08-24T13:07:55.499Z,68.75
2018-08-24T13:09:01.466Z,69.13
2018-08-24T13:10:07.266Z,68.30
2018-08-24T13:11:13.693Z,67.10
2018-08-24T13:12:19.609Z,64.94
2018-08-24T13:13:25.992Z,66.22
2018-08-24T13:14:31.968Z,65.67
2018-08-24T13:15:38.336Z,65.37
2018-08-24T13:16:44.253Z,65.44
2018-08-24T13:17:50.867Z,63.68
2018-08-24T13:18:57.184Z,63.50
2018-08-24T13:20:03.677Z,61.83
2018-08-24T13:21:10.430Z,62.47
2018-08-24T13:22:16.750Z,63.07
2018-08-24T13:23:23.037Z,63.27
2018-08-24T13:24:29.345Z,62.59
2018-08-24T13:25:36.914Z,62.20
2018-08-24T13:26:43.161Z,61.14
2018-08-24T13:27:49.408Z,61.06
2018-08-24T13:28:55.703Z,58.77
2018-08-24T13:30:01.943Z,58.38
2018-08-24T13:31:09.064Z,56.90
2018-08-24T13:32:15.399Z,57.89
2018-08-24T13:33:22.176Z,58.72
2018-08-24T13:34:28.515Z,59.48
2018-08-24T13:35:34.837Z,60.42
2018-08-24T13:36:41.121Z,61.16
2018-08-24T13:37:47.326Z,58.94
2018-08-24T13:38:53.593Z,61.04
2018-08-24T13:39:59.977Z,62.31
2018-08-24T13:41:05.947Z,63.00
2018-08-24T13:42:11.982Z,64.77
2018-08-24T13:43:18.307Z,65.56
2018-08-24T13:44:25.010Z,66.35
2018-08-24T13:45:31.691Z,65.72
2018-08-24T13:46:38.660Z,69.52
2018-08-24T13:47:44.635Z,70.02
2018-08-24T13:48:50.493Z,70.97
2018-08-24T13:49:56.772Z,70.47
2018-08-24T13:51:02.992Z,72.53
2018-08-24T13:52:09.424Z,73.51
2018-08-24T13:53:15.212Z,75.35
2018-08-24T13:54:21.617Z,75.48
2018-08-24T13:55:27.622Z,75.87
2018-08-24T13:56:34.509Z,74.88
2018-08-24T13:57:42.128Z,74.55
2018-08-24T13:58:49.164Z,74.28
2018-08-24T13:59:55.532Z,71.87
2018-08-24T14:01:02.062Z,73.13
2018-08-24T14:02:08.352Z,74.79
2018-08-24T14:03:14.368Z,74.42
2018-08-24T14:04:20.814Z,75.70
2018-08-24T14:05:27.187Z,74.72
2018-08-24T14:06:33.563Z,73.30
2018-08-24T14:07:39.906Z,72.99
2018-08-24T14:08:46.216Z,73.22
2018-08-24T14:09:52.529Z,73.82
2018-08-24T14:10:58.872Z,74.41
2018-08-24T14:12:05.176Z,73.62
2018-08-24T14:13:11.215Z,74.66
2018-08-24T14:14:17.891Z,71.42
2018-08-24T14:15:24.221Z,71.38
2018-08-24T14:16:31.263Z,72.09
2018-08-24T14:17:37.620Z,71.40
2018-08-24T14:18:43.517Z,70.54
2018-08-24T14:19:49.512Z,70.01
2018-08-24T14:20:55.858Z,71.54
2018-08-24T14:22:02.397Z,72.68
2018-08-24T14:23:08.831Z,71.08
2018-08-24T14:24:15.739Z,70.57
2018-08-24T14:25:21.900Z,69.73
2018-08-24T14:26:28.229Z,70.27
2018-08-24T14:27:34.745Z,70.90